sensor_id;sensor_type;location;lat;lon;timestamp;P1;durP1;ratioP1;P2;durP2;ratioP2
74957;SDS011;63741;42.624;26.276;2023-01-09T00:00:57;34.22;;;17.75;;
74957;SDS011;63741;42.624;26.276;2023-01-09T00:03:24;27.75;;;16.10;;
74957;SDS011;63741;42.624;26.276;2023-01-09T00:05:52;29.33;;;15.90;;
74957;SDS011;63741;42.624;26.276;2023-01-09T00:08:19;26.20;;;15.20;;
74957;SDS011;63741;42.624;26.276;2023-01-09T00:10:47;22.10;;;13.68;;
74957;SDS011;63741;42.624;26.276;2023-01-09T00:13:15;19.50;;;13.38;;
74957;SDS011;63741;42.624;26.276;2023-01-09T00:15:43;22.95;;;14.20;;
74957;SDS011;63741;42.624;26.276;2023-01-09T00:18:11;27.35;;;16.15;;
74957;SDS011;63741;42.624;26.276;2023-01-09T00:20:38;32.45;;;19.17;;
74957;SDS011;63741;42.624;26.276;2023-01-09T00:23:05;28.98;;;16.90;;
74957;SDS011;63741;42.624;26.276;2023-01-09T00:25:31;27.33;;;16.17;;
74957;SDS011;63741;42.624;26.276;2023-01-09T00:27:59;27.05;;;15.13;;
74957;SDS011;63741;42.624;26.276;2023-01-09T00:30:26;20.52;;;12.15;;
74957;SDS011;63741;42.624;26.276;2023-01-09T00:32:53;19.85;;;11.23;;
74957;SDS011;63741;42.624;26.276;2023-01-09T00:35:22;15.35;;;10.23;;
74957;SDS011;63741;42.624;26.276;2023-01-09T00:37:50;17.23;;;10.38;;
74957;SDS011;63741;42.624;26.276;2023-01-09T00:40:17;20.02;;;11.38;;
74957;SDS011;63741;42.624;26.276;2023-01-09T00:42:47;20.48;;;11.10;;
74957;SDS011;63741;42.624;26.276;2023-01-09T00:45:17;19.55;;;10.32;;
74957;SDS011;63741;42.624;26.276;2023-01-09T00:47:49;19.90;;;9.77;;
74957;SDS011;63741;42.624;26.276;2023-01-09T00:50:19;21.52;;;10.93;;
74957;SDS011;63741;42.624;26.276;2023-01-09T00:55:19;17.95;;;9.55;;
74957;SDS011;63741;42.624;26.276;2023-01-09T00:57:46;20.45;;;10.75;;
74957;SDS011;63741;42.624;26.276;2023-01-09T01:00:13;18.45;;;10.02;;
74957;SDS011;63741;42.624;26.276;2023-01-09T01:02:41;12.85;;;8.35;;
74957;SDS011;63741;42.624;26.276;2023-01-09T01:05:08;15.80;;;8.98;;
74957;SDS011;63741;42.624;26.276;2023-01-09T01:07:53;14.10;;;8.00;;
74957;SDS011;63741;42.624;26.276;2023-01-09T01:10:22;11.43;;;7.50;;
74957;SDS011;63741;42.624;26.276;2023-01-09T01:12:50;12.38;;;8.18;;
74957;SDS011;63741;42.624;26.276;2023-01-09T01:15:18;14.02;;;7.57;;
74957;SDS011;63741;42.624;26.276;2023-01-09T01:17:46;12.85;;;7.93;;
74957;SDS011;63741;42.624;26.276;2023-01-09T01:20:14;14.23;;;8.55;;
74957;SDS011;63741;42.624;26.276;2023-01-09T01:22:43;12.13;;;7.90;;
74957;SDS011;63741;42.624;26.276;2023-01-09T01:25:10;10.98;;;7.32;;
74957;SDS011;63741;42.624;26.276;2023-01-09T01:27:39;10.65;;;7.60;;
74957;SDS011;63741;42.624;26.276;2023-01-09T01:30:06;11.70;;;7.78;;
74957;SDS011;63741;42.624;26.276;2023-01-09T01:32:35;12.82;;;8.38;;
74957;SDS011;63741;42.624;26.276;2023-01-09T01:35:02;14.05;;;8.88;;
74957;SDS011;63741;42.624;26.276;2023-01-09T01:37:29;13.48;;;9.13;;
74957;SDS011;63741;42.624;26.276;2023-01-09T01:39:56;14.00;;;8.68;;
74957;SDS011;63741;42.624;26.276;2023-01-09T01:42:23;14.48;;;9.60;;
74957;SDS011;63741;42.624;26.276;2023-01-09T01:44:55;15.68;;;10.40;;
74957;SDS011;63741;42.624;26.276;2023-01-09T01:53:23;15.05;;;9.80;;
74957;SDS011;63741;42.624;26.276;2023-01-09T01:58:23;14.23;;;8.82;;
74957;SDS011;63741;42.624;26.276;2023-01-09T02:00:52;14.73;;;10.00;;
74957;SDS011;63741;42.624;26.276;2023-01-09T02:03:20;12.93;;;8.13;;
74957;SDS011;63741;42.624;26.276;2023-01-09T02:05:51;13.77;;;8.88;;
74957;SDS011;63741;42.624;26.276;2023-01-09T02:08:18;15.15;;;9.60;;
74957;SDS011;63741;42.624;26.276;2023-01-09T02:10:47;17.30;;;10.77;;
74957;SDS011;63741;42.624;26.276;2023-01-09T02:13:15;17.15;;;10.60;;
74957;SDS011;63741;42.624;26.276;2023-01-09T02:18:46;23.88;;;14.05;;
74957;SDS011;63741;42.624;26.276;2023-01-09T02:21:39;19.95;;;12.05;;
74957;SDS011;63741;42.624;26.276;2023-01-09T02:27:58;18.52;;;10.45;;
74957;SDS011;63741;42.624;26.276;2023-01-09T02:33:20;15.18;;;9.50;;
74957;SDS011;63741;42.624;26.276;2023-01-09T02:36:16;22.60;;;10.75;;
74957;SDS011;63741;42.624;26.276;2023-01-09T02:38:57;19.00;;;11.70;;
74957;SDS011;63741;42.624;26.276;2023-01-09T02:46:42;17.88;;;11.68;;
74957;SDS011;63741;42.624;26.276;2023-01-09T02:49:09;18.13;;;10.82;;
74957;SDS011;63741;42.624;26.276;2023-01-09T02:51:41;19.90;;;11.68;;
74957;SDS011;63741;42.624;26.276;2023-01-09T02:54:18;20.08;;;11.15;;
74957;SDS011;63741;42.624;26.276;2023-01-09T02:57:10;20.02;;;11.20;;
74957;SDS011;63741;42.624;26.276;2023-01-09T03:02:38;19.80;;;11.30;;
74957;SDS011;63741;42.624;26.276;2023-01-09T03:05:23;21.85;;;11.23;;
74957;SDS011;63741;42.624;26.276;2023-01-09T03:08:03;18.42;;;11.77;;
74957;SDS011;63741;42.624;26.276;2023-01-09T03:10:35;20.00;;;13.10;;
74957;SDS011;63741;42.624;26.276;2023-01-09T03:13:08;26.95;;;14.45;;
74957;SDS011;63741;42.624;26.276;2023-01-09T03:15:39;25.27;;;13.38;;
74957;SDS011;63741;42.624;26.276;2023-01-09T03:18:10;17.08;;;11.52;;
74957;SDS011;63741;42.624;26.276;2023-01-09T03:20:39;17.77;;;11.00;;
74957;SDS011;63741;42.624;26.276;2023-01-09T03:23:08;16.20;;;11.40;;
74957;SDS011;63741;42.624;26.276;2023-01-09T03:25:35;18.98;;;10.50;;
74957;SDS011;63741;42.624;26.276;2023-01-09T03:28:06;19.05;;;12.60;;
74957;SDS011;63741;42.624;26.276;2023-01-09T03:30:34;18.27;;;11.80;;
74957;SDS011;63741;42.624;26.276;2023-01-09T03:33:02;15.68;;;10.23;;
74957;SDS011;63741;42.624;26.276;2023-01-09T03:35:29;15.80;;;10.48;;
74957;SDS011;63741;42.624;26.276;2023-01-09T03:37:56;18.63;;;11.18;;
74957;SDS011;63741;42.624;26.276;2023-01-09T03:40:24;17.75;;;11.65;;
74957;SDS011;63741;42.624;26.276;2023-01-09T03:42:51;16.42;;;10.75;;
74957;SDS011;63741;42.624;26.276;2023-01-09T03:45:18;17.90;;;10.60;;
74957;SDS011;63741;42.624;26.276;2023-01-09T03:47:45;17.20;;;10.20;;
74957;SDS011;63741;42.624;26.276;2023-01-09T03:50:12;16.63;;;10.40;;
74957;SDS011;63741;42.624;26.276;2023-01-09T03:52:39;18.70;;;9.90;;
74957;SDS011;63741;42.624;26.276;2023-01-09T03:55:06;19.15;;;10.25;;
74957;SDS011;63741;42.624;26.276;2023-01-09T03:57:34;18.88;;;11.50;;
74957;SDS011;63741;42.624;26.276;2023-01-09T04:00:00;19.60;;;11.98;;
74957;SDS011;63741;42.624;26.276;2023-01-09T04:02:37;18.55;;;11.05;;
74957;SDS011;63741;42.624;26.276;2023-01-09T04:05:04;21.00;;;12.10;;
74957;SDS011;63741;42.624;26.276;2023-01-09T04:07:31;22.58;;;11.45;;
74957;SDS011;63741;42.624;26.276;2023-01-09T04:09:58;17.55;;;10.57;;
74957;SDS011;63741;42.624;26.276;2023-01-09T04:12:25;20.02;;;12.35;;
74957;SDS011;63741;42.624;26.276;2023-01-09T04:14:52;17.90;;;10.82;;
74957;SDS011;63741;42.624;26.276;2023-01-09T04:17:19;16.70;;;11.23;;
74957;SDS011;63741;42.624;26.276;2023-01-09T04:19:46;18.88;;;11.25;;
74957;SDS011;63741;42.624;26.276;2023-01-09T04:22:13;17.58;;;11.40;;
74957;SDS011;63741;42.624;26.276;2023-01-09T04:24:40;17.35;;;10.20;;
74957;SDS011;63741;42.624;26.276;2023-01-09T04:27:06;15.85;;;9.90;;
74957;SDS011;63741;42.624;26.276;2023-01-09T04:29:33;20.63;;;11.27;;
74957;SDS011;63741;42.624;26.276;2023-01-09T04:32:00;16.60;;;10.63;;
74957;SDS011;63741;42.624;26.276;2023-01-09T04:34:27;15.45;;;10.00;;
74957;SDS011;63741;42.624;26.276;2023-01-09T04:36:54;15.80;;;10.13;;
74957;SDS011;63741;42.624;26.276;2023-01-09T04:39:21;17.17;;;10.55;;
74957;SDS011;63741;42.624;26.276;2023-01-09T04:41:48;15.75;;;9.68;;
74957;SDS011;63741;42.624;26.276;2023-01-09T04:44:22;16.35;;;10.25;;
74957;SDS011;63741;42.624;26.276;2023-01-09T04:46:53;16.40;;;10.57;;
74957;SDS011;63741;42.624;26.276;2023-01-09T04:49:21;16.98;;;10.15;;
74957;SDS011;63741;42.624;26.276;2023-01-09T04:51:49;16.85;;;10.82;;
74957;SDS011;63741;42.624;26.276;2023-01-09T04:54:16;17.92;;;11.07;;
74957;SDS011;63741;42.624;26.276;2023-01-09T04:56:43;18.15;;;10.50;;
74957;SDS011;63741;42.624;26.276;2023-01-09T04:59:10;17.95;;;11.10;;
74957;SDS011;63741;42.624;26.276;2023-01-09T05:01:37;23.88;;;11.35;;
74957;SDS011;63741;42.624;26.276;2023-01-09T05:04:04;17.65;;;11.40;;
74957;SDS011;63741;42.624;26.276;2023-01-09T05:06:32;22.17;;;14.95;;
74957;SDS011;63741;42.624;26.276;2023-01-09T05:09:00;24.00;;;17.88;;
74957;SDS011;63741;42.624;26.276;2023-01-09T05:11:27;24.60;;;16.83;;
74957;SDS011;63741;42.624;26.276;2023-01-09T05:13:53;25.30;;;14.93;;
74957;SDS011;63741;42.624;26.276;2023-01-09T05:16:20;26.42;;;15.20;;
74957;SDS011;63741;42.624;26.276;2023-01-09T05:18:47;25.67;;;16.23;;
74957;SDS011;63741;42.624;26.276;2023-01-09T05:21:14;41.25;;;20.92;;
74957;SDS011;63741;42.624;26.276;2023-01-09T05:23:41;45.25;;;22.88;;
74957;SDS011;63741;42.624;26.276;2023-01-09T05:26:08;41.38;;;22.15;;
74957;SDS011;63741;42.624;26.276;2023-01-09T05:28:35;37.33;;;20.13;;
74957;SDS011;63741;42.624;26.276;2023-01-09T05:31:02;35.17;;;19.20;;
74957;SDS011;63741;42.624;26.276;2023-01-09T05:33:29;29.00;;;17.48;;
74957;SDS011;63741;42.624;26.276;2023-01-09T05:35:56;34.20;;;18.92;;
74957;SDS011;63741;42.624;26.276;2023-01-09T05:38:22;20.35;;;14.05;;
74957;SDS011;63741;42.624;26.276;2023-01-09T05:40:49;27.75;;;16.98;;
74957;SDS011;63741;42.624;26.276;2023-01-09T05:43:16;27.42;;;14.10;;
74957;SDS011;63741;42.624;26.276;2023-01-09T05:45:43;24.75;;;13.50;;
74957;SDS011;63741;42.624;26.276;2023-01-09T05:48:10;22.50;;;13.65;;
74957;SDS011;63741;42.624;26.276;2023-01-09T05:50:37;22.60;;;15.20;;
74957;SDS011;63741;42.624;26.276;2023-01-09T05:53:04;28.42;;;16.60;;
74957;SDS011;63741;42.624;26.276;2023-01-09T05:55:32;32.33;;;17.27;;
74957;SDS011;63741;42.624;26.276;2023-01-09T05:57:59;36.80;;;19.98;;
74957;SDS011;63741;42.624;26.276;2023-01-09T06:00:26;39.03;;;21.92;;
74957;SDS011;63741;42.624;26.276;2023-01-09T06:02:53;50.72;;;24.98;;
74957;SDS011;63741;42.624;26.276;2023-01-09T06:05:20;51.38;;;22.27;;
74957;SDS011;63741;42.624;26.276;2023-01-09T06:07:47;85.28;;;27.05;;
74957;SDS011;63741;42.624;26.276;2023-01-09T06:10:14;114.10;;;29.80;;
74957;SDS011;63741;42.624;26.276;2023-01-09T06:12:41;77.32;;;27.60;;
74957;SDS011;63741;42.624;26.276;2023-01-09T06:15:14;64.53;;;27.65;;
74957;SDS011;63741;42.624;26.276;2023-01-09T06:17:41;48.97;;;24.33;;
74957;SDS011;63741;42.624;26.276;2023-01-09T06:20:09;37.28;;;20.08;;
74957;SDS011;63741;42.624;26.276;2023-01-09T06:22:36;34.67;;;20.75;;
74957;SDS011;63741;42.624;26.276;2023-01-09T06:25:03;40.17;;;19.92;;
74957;SDS011;63741;42.624;26.276;2023-01-09T06:27:31;39.33;;;19.27;;
74957;SDS011;63741;42.624;26.276;2023-01-09T06:29:58;30.13;;;16.83;;
74957;SDS011;63741;42.624;26.276;2023-01-09T06:32:25;26.92;;;13.77;;
74957;SDS011;63741;42.624;26.276;2023-01-09T06:34:52;22.02;;;13.57;;
74957;SDS011;63741;42.624;26.276;2023-01-09T06:37:19;17.60;;;11.55;;
74957;SDS011;63741;42.624;26.276;2023-01-09T06:39:45;18.60;;;11.75;;
74957;SDS011;63741;42.624;26.276;2023-01-09T06:42:12;17.70;;;11.95;;
74957;SDS011;63741;42.624;26.276;2023-01-09T06:44:39;20.98;;;13.15;;
74957;SDS011;63741;42.624;26.276;2023-01-09T06:47:06;16.45;;;11.02;;
74957;SDS011;63741;42.624;26.276;2023-01-09T06:49:33;16.95;;;10.68;;
74957;SDS011;63741;42.624;26.276;2023-01-09T06:52:01;14.77;;;10.32;;
74957;SDS011;63741;42.624;26.276;2023-01-09T06:54:31;18.00;;;11.02;;
74957;SDS011;63741;42.624;26.276;2023-01-09T06:56:58;17.60;;;11.30;;
74957;SDS011;63741;42.624;26.276;2023-01-09T06:59:25;20.83;;;12.60;;
74957;SDS011;63741;42.624;26.276;2023-01-09T07:01:52;70.55;;;25.00;;
74957;SDS011;63741;42.624;26.276;2023-01-09T07:04:20;50.65;;;20.30;;
74957;SDS011;63741;42.624;26.276;2023-01-09T07:06:47;180.05;;;53.83;;
74957;SDS011;63741;42.624;26.276;2023-01-09T07:09:15;84.55;;;36.15;;
74957;SDS011;63741;42.624;26.276;2023-01-09T07:11:42;22.45;;;12.65;;
74957;SDS011;63741;42.624;26.276;2023-01-09T07:14:09;14.35;;;10.07;;
74957;SDS011;63741;42.624;26.276;2023-01-09T07:16:35;24.98;;;9.55;;
74957;SDS011;63741;42.624;26.276;2023-01-09T07:19:02;17.75;;;9.88;;
74957;SDS011;63741;42.624;26.276;2023-01-09T07:21:29;20.42;;;11.32;;
74957;SDS011;63741;42.624;26.276;2023-01-09T07:23:58;22.15;;;11.55;;
74957;SDS011;63741;42.624;26.276;2023-01-09T07:26:25;23.75;;;11.90;;
74957;SDS011;63741;42.624;26.276;2023-01-09T07:28:52;38.00;;;18.05;;
74957;SDS011;63741;42.624;26.276;2023-01-09T07:31:20;44.38;;;19.70;;
74957;SDS011;63741;42.624;26.276;2023-01-09T07:33:46;28.65;;;14.48;;
74957;SDS011;63741;42.624;26.276;2023-01-09T07:36:13;22.38;;;12.00;;
74957;SDS011;63741;42.624;26.276;2023-01-09T07:38:40;44.22;;;20.25;;
74957;SDS011;63741;42.624;26.276;2023-01-09T07:41:07;27.52;;;15.18;;
74957;SDS011;63741;42.624;26.276;2023-01-09T07:43:35;23.38;;;13.52;;
74957;SDS011;63741;42.624;26.276;2023-01-09T07:46:02;49.10;;;21.83;;
74957;SDS011;63741;42.624;26.276;2023-01-09T07:48:30;54.67;;;23.35;;
74957;SDS011;63741;42.624;26.276;2023-01-09T07:50:57;43.17;;;16.13;;
74957;SDS011;63741;42.624;26.276;2023-01-09T07:53:24;36.97;;;18.23;;
74957;SDS011;63741;42.624;26.276;2023-01-09T07:55:51;46.63;;;18.63;;
74957;SDS011;63741;42.624;26.276;2023-01-09T07:58:18;46.63;;;22.25;;
74957;SDS011;63741;42.624;26.276;2023-01-09T08:00:44;48.65;;;22.35;;
74957;SDS011;63741;42.624;26.276;2023-01-09T08:03:11;37.22;;;20.92;;
74957;SDS011;63741;42.624;26.276;2023-01-09T08:05:38;40.70;;;21.85;;
74957;SDS011;63741;42.624;26.276;2023-01-09T08:08:05;32.85;;;19.08;;
74957;SDS011;63741;42.624;26.276;2023-01-09T08:10:32;35.08;;;20.67;;
74957;SDS011;63741;42.624;26.276;2023-01-09T08:12:59;31.80;;;20.38;;
74957;SDS011;63741;42.624;26.276;2023-01-09T08:15:26;29.48;;;18.27;;
74957;SDS011;63741;42.624;26.276;2023-01-09T08:17:53;22.50;;;14.50;;
74957;SDS011;63741;42.624;26.276;2023-01-09T08:20:20;19.30;;;12.13;;
74957;SDS011;63741;42.624;26.276;2023-01-09T08:22:47;17.83;;;10.40;;
74957;SDS011;63741;42.624;26.276;2023-01-09T08:25:15;17.55;;;11.70;;
74957;SDS011;63741;42.624;26.276;2023-01-09T08:27:43;18.58;;;11.18;;
74957;SDS011;63741;42.624;26.276;2023-01-09T08:30:11;19.95;;;10.73;;
74957;SDS011;63741;42.624;26.276;2023-01-09T08:32:38;17.83;;;11.07;;
74957;SDS011;63741;42.624;26.276;2023-01-09T08:35:07;22.17;;;11.98;;
74957;SDS011;63741;42.624;26.276;2023-01-09T08:37:34;19.05;;;12.82;;
74957;SDS011;63741;42.624;26.276;2023-01-09T08:40:01;22.30;;;12.30;;
74957;SDS011;63741;42.624;26.276;2023-01-09T08:42:28;20.80;;;14.30;;
74957;SDS011;63741;42.624;26.276;2023-01-09T08:45:14;23.92;;;14.57;;
74957;SDS011;63741;42.624;26.276;2023-01-09T08:48:00;20.92;;;13.15;;
74957;SDS011;63741;42.624;26.276;2023-01-09T08:50:27;31.35;;;17.83;;
74957;SDS011;63741;42.624;26.276;2023-01-09T08:52:53;22.20;;;15.13;;
74957;SDS011;63741;42.624;26.276;2023-01-09T08:55:20;22.05;;;14.43;;
74957;SDS011;63741;42.624;26.276;2023-01-09T08:57:48;23.77;;;14.82;;
74957;SDS011;63741;42.624;26.276;2023-01-09T09:00:16;21.98;;;14.23;;
74957;SDS011;63741;42.624;26.276;2023-01-09T09:02:45;24.20;;;14.02;;
74957;SDS011;63741;42.624;26.276;2023-01-09T09:05:16;22.33;;;13.48;;
74957;SDS011;63741;42.624;26.276;2023-01-09T09:07:46;21.58;;;12.82;;
74957;SDS011;63741;42.624;26.276;2023-01-09T09:12:43;21.20;;;12.63;;
74957;SDS011;63741;42.624;26.276;2023-01-09T09:15:13;22.25;;;12.73;;
74957;SDS011;63741;42.624;26.276;2023-01-09T09:17:53;20.85;;;13.00;;
74957;SDS011;63741;42.624;26.276;2023-01-09T09:20:22;19.02;;;12.57;;
74957;SDS011;63741;42.624;26.276;2023-01-09T09:22:50;22.88;;;12.52;;
74957;SDS011;63741;42.624;26.276;2023-01-09T09:25:18;23.92;;;12.63;;
74957;SDS011;63741;42.624;26.276;2023-01-09T09:27:45;20.40;;;13.15;;
74957;SDS011;63741;42.624;26.276;2023-01-09T09:30:13;19.90;;;12.32;;
74957;SDS011;63741;42.624;26.276;2023-01-09T09:32:41;26.13;;;16.70;;
74957;SDS011;63741;42.624;26.276;2023-01-09T09:35:09;36.33;;;22.20;;
74957;SDS011;63741;42.624;26.276;2023-01-09T09:37:36;33.05;;;22.85;;
74957;SDS011;63741;42.624;26.276;2023-01-09T09:40:04;37.05;;;22.95;;
74957;SDS011;63741;42.624;26.276;2023-01-09T09:42:47;37.78;;;23.73;;
74957;SDS011;63741;42.624;26.276;2023-01-09T09:49:20;37.05;;;22.15;;
74957;SDS011;63741;42.624;26.276;2023-01-09T09:54:39;33.10;;;21.48;;
74957;SDS011;63741;42.624;26.276;2023-01-09T09:57:11;29.65;;;19.02;;
74957;SDS011;63741;42.624;26.276;2023-01-09T09:59:42;25.33;;;17.50;;
74957;SDS011;63741;42.624;26.276;2023-01-09T10:02:28;25.27;;;17.95;;
74957;SDS011;63741;42.624;26.276;2023-01-09T10:05:11;25.77;;;17.48;;
74957;SDS011;63741;42.624;26.276;2023-01-09T10:07:47;24.60;;;16.58;;
74957;SDS011;63741;42.624;26.276;2023-01-09T10:12:58;26.52;;;17.23;;
74957;SDS011;63741;42.624;26.276;2023-01-09T10:15:52;26.15;;;17.55;;
74957;SDS011;63741;42.624;26.276;2023-01-09T10:21:15;27.25;;;17.88;;
74957;SDS011;63741;42.624;26.276;2023-01-09T10:23:57;27.92;;;17.30;;
74957;SDS011;63741;42.624;26.276;2023-01-09T10:26:46;21.13;;;13.75;;
74957;SDS011;63741;42.624;26.276;2023-01-09T10:29:20;19.58;;;13.32;;
74957;SDS011;63741;42.624;26.276;2023-01-09T10:37:19;21.15;;;14.02;;
74957;SDS011;63741;42.624;26.276;2023-01-09T10:42:59;22.52;;;12.30;;
74957;SDS011;63741;42.624;26.276;2023-01-09T10:45:34;21.23;;;13.60;;
74957;SDS011;63741;42.624;26.276;2023-01-09T10:50:47;22.50;;;14.32;;
74957;SDS011;63741;42.624;26.276;2023-01-09T10:53:59;21.60;;;15.77;;
74957;SDS011;63741;42.624;26.276;2023-01-09T10:58:57;24.42;;;14.60;;
74957;SDS011;63741;42.624;26.276;2023-01-09T11:01:25;23.52;;;14.55;;
74957;SDS011;63741;42.624;26.276;2023-01-09T11:03:55;22.60;;;14.65;;
74957;SDS011;63741;42.624;26.276;2023-01-09T11:06:30;23.50;;;14.10;;
74957;SDS011;63741;42.624;26.276;2023-01-09T11:09:05;19.52;;;12.82;;
74957;SDS011;63741;42.624;26.276;2023-01-09T11:11:37;20.35;;;12.48;;
74957;SDS011;63741;42.624;26.276;2023-01-09T11:14:16;19.20;;;12.93;;
74957;SDS011;63741;42.624;26.276;2023-01-09T11:16:54;18.45;;;11.77;;
74957;SDS011;63741;42.624;26.276;2023-01-09T11:19:23;18.67;;;12.13;;
74957;SDS011;63741;42.624;26.276;2023-01-09T11:22:24;21.05;;;13.63;;
74957;SDS011;63741;42.624;26.276;2023-01-09T11:24:45;20.52;;;13.85;;
74957;SDS011;63741;42.624;26.276;2023-01-09T11:27:25;20.35;;;14.23;;
74957;SDS011;63741;42.624;26.276;2023-01-09T11:32:43;24.02;;;15.20;;
74957;SDS011;63741;42.624;26.276;2023-01-09T11:35:20;25.52;;;16.65;;
74957;SDS011;63741;42.624;26.276;2023-01-09T11:37:56;27.15;;;18.05;;
74957;SDS011;63741;42.624;26.276;2023-01-09T11:40:28;25.65;;;18.02;;
74957;SDS011;63741;42.624;26.276;2023-01-09T11:45:33;27.20;;;19.50;;
74957;SDS011;63741;42.624;26.276;2023-01-09T11:48:01;29.17;;;19.80;;
74957;SDS011;63741;42.624;26.276;2023-01-09T11:50:43;27.58;;;19.80;;
74957;SDS011;63741;42.624;26.276;2023-01-09T11:53:20;31.45;;;19.77;;
74957;SDS011;63741;42.624;26.276;2023-01-09T11:55:52;29.25;;;19.58;;
74957;SDS011;63741;42.624;26.276;2023-01-09T11:58:22;33.80;;;20.75;;
74957;SDS011;63741;42.624;26.276;2023-01-09T12:03:23;32.25;;;21.02;;
74957;SDS011;63741;42.624;26.276;2023-01-09T12:06:14;32.67;;;20.17;;
74957;SDS011;63741;42.624;26.276;2023-01-09T12:44:49;25.25;;;14.00;;
74957;SDS011;63741;42.624;26.276;2023-01-09T12:47:31;23.25;;;14.90;;
74957;SDS011;63741;42.624;26.276;2023-01-09T12:50:13;25.23;;;14.55;;
74957;SDS011;63741;42.624;26.276;2023-01-09T12:55:41;25.75;;;15.30;;
74957;SDS011;63741;42.624;26.276;2023-01-09T13:00:59;26.73;;;14.57;;
74957;SDS011;63741;42.624;26.276;2023-01-09T13:03:44;26.65;;;15.40;;
74957;SDS011;63741;42.624;26.276;2023-01-09T13:06:17;27.90;;;17.20;;
74957;SDS011;63741;42.624;26.276;2023-01-09T13:08:48;28.60;;;15.93;;
74957;SDS011;63741;42.624;26.276;2023-01-09T13:11:27;25.52;;;15.77;;
74957;SDS011;63741;42.624;26.276;2023-01-09T13:14:04;26.40;;;15.73;;
74957;SDS011;63741;42.624;26.276;2023-01-09T13:16:41;23.40;;;15.93;;
74957;SDS011;63741;42.624;26.276;2023-01-09T13:22:11;33.50;;;15.50;;
74957;SDS011;63741;42.624;26.276;2023-01-09T13:27:30;37.45;;;15.45;;
74957;SDS011;63741;42.624;26.276;2023-01-09T13:35:22;29.30;;;15.13;;
74957;SDS011;63741;42.624;26.276;2023-01-09T13:37:50;44.20;;;19.05;;
74957;SDS011;63741;42.624;26.276;2023-01-09T13:43:01;33.58;;;17.85;;
74957;SDS011;63741;42.624;26.276;2023-01-09T13:45:34;30.23;;;16.95;;
74957;SDS011;63741;42.624;26.276;2023-01-09T13:50:44;39.50;;;18.10;;
